Terminal Aerodrome Forecast
Issued by NWS Des Moines, IA

Home | Current Version | Previous Version | Text Only | Print | Product List | Glossary On
Versions: 1 2 3 4 5 6 7 8 9 10 11 12 13 14 15 16 17 18
000
FTUS43 KDMX 221133
TAFDSM
TAF
KDSM 221133Z 2212/2312 21009KT P6SM FEW250
     FM221900 25012G19KT P6SM SKC
     FM230100 29006KT P6SM FEW250
     FM231100 01005KT P6SM BKN100=

USA.gov is the U.S. government's official web portal to all federal, state and local government web resources and services.